EWG3EK LPMA-EDDL
Flight info
| Callsign | EWG3EK |
|---|---|
| Flight time | 3h 31m |
| Altitude | 34000 |
| Route | DEGUN DCT ROLAR DCT ASMAR DCT DEMOS/N0455F340 DCT LOTEE DCT AZFIC DCT ERIGA DCT MOKOR UN741 NTS DCT GONEK DCT TABOV DCT TSU DCT OQQAL DCT RANUX/N0443F350 DCT VALEK DCT LUTAX DCT DIK/N0439F310 N853 ARCKY T853 NVO T857 BIKMU BIKMU1A |
| Aircraft | A321/M-SDE2E3FGIJ1LORWXY/HB1 |
Departure
| Time | 2026-05-04 16:45 |
|---|---|
| Airport | Cristiano Ronaldo International Airport (LPMA) |
Arrival
| Time | 2026-05-04 20:17 |
|---|---|
| Airport | Düsseldorf Airport (EDDL) |
| Time | Latitude | Longitude | Altitude | Speed | Heading |
|---|---|---|---|---|---|
| 2026-05-04 16:44 | 32.68102 | -16.64415 | 3243 ft | 258 kts | 111° |
| 2026-05-04 16:45 | 32.66777 | -16.60432 | 4384 ft | 265 kts | 110° |
| 2026-05-04 16:46 | 32.66202 | -16.53994 | 6000 ft | 275 kts | 68° |
| 2026-05-04 16:46 | 32.68568 | -16.50363 | 7126 ft | 283 kts | 43° |
| 2026-05-04 16:47 | 32.71432 | -16.47099 | 8192 ft | 289 kts | 43° |
| 2026-05-04 16:47 | 32.74355 | -16.43765 | 9268 ft | 294 kts | 43° |
| 2026-05-04 16:48 | 32.78870 | -16.38611 | 10338 ft | 319 kts | 43° |
| 2026-05-04 16:48 | 32.80517 | -16.36730 | 10473 ft | 336 kts | 43° |
| 2026-05-04 16:49 | 32.84034 | -16.32711 | 10738 ft | 363 kts | 43° |
| 2026-05-04 16:49 | 32.87736 | -16.28464 | 11485 ft | 374 kts | 43° |
| 2026-05-04 16:50 | 32.91527 | -16.24118 | 12437 ft | 380 kts | 43° |
| 2026-05-04 16:50 | 32.95368 | -16.19702 | 13314 ft | 387 kts | 43° |
| 2026-05-04 16:51 | 32.99262 | -16.15220 | 14144 ft | 391 kts | 43° |
| 2026-05-04 16:51 | 33.01228 | -16.12961 | 14556 ft | 394 kts | 43° |
| 2026-05-04 16:51 | 33.05195 | -16.08391 | 15359 ft | 399 kts | 43° |
| 2026-05-04 16:52 | 33.09211 | -16.03744 | 16138 ft | 405 kts | 43° |
| 2026-05-04 16:52 | 33.11237 | -16.01402 | 16535 ft | 406 kts | 43° |
| 2026-05-04 16:53 | 33.15309 | -15.96704 | 17260 ft | 411 kts | 42° |
| 2026-05-04 16:53 | 33.21529 | -15.89513 | 18259 ft | 418 kts | 43° |
| 2026-05-04 16:54 | 33.23625 | -15.87074 | 18583 ft | 421 kts | 43° |
| 2026-05-04 16:55 | 33.32110 | -15.77204 | 19787 ft | 431 kts | 43° |
| 2026-05-04 16:55 | 33.36427 | -15.72184 | 20404 ft | 435 kts | 42° |
| 2026-05-04 16:56 | 33.40826 | -15.67179 | 20969 ft | 437 kts | 37° |
| 2026-05-04 16:56 | 33.48778 | -15.61916 | 21778 ft | 437 kts | 22° |
| 2026-05-04 16:57 | 33.51541 | -15.60349 | 22017 ft | 440 kts | 22° |
| 2026-05-04 16:57 | 33.57066 | -15.57224 | 22513 ft | 444 kts | 22° |
| 2026-05-04 16:58 | 33.65505 | -15.52436 | 23308 ft | 449 kts | 22° |
| 2026-05-04 16:58 | 33.68344 | -15.50829 | 23548 ft | 451 kts | 22° |
| 2026-05-04 16:59 | 33.74047 | -15.47581 | 24017 ft | 454 kts | 22° |
| 2026-05-04 17:00 | 33.85557 | -15.41027 | 24892 ft | 461 kts | 21° |
| 2026-05-04 17:00 | 33.94315 | -15.36022 | 25513 ft | 467 kts | 21° |
| 2026-05-04 17:01 | 34.00203 | -15.32631 | 25948 ft | 470 kts | 22° |
| 2026-05-04 17:01 | 34.06086 | -15.29248 | 26400 ft | 473 kts | 21° |
| 2026-05-04 17:02 | 34.12032 | -15.25844 | 26775 ft | 475 kts | 21° |
| 2026-05-04 17:02 | 34.18020 | -15.22402 | 27170 ft | 478 kts | 21° |
| 2026-05-04 17:03 | 34.21026 | -15.20656 | 27361 ft | 480 kts | 22° |
| 2026-05-04 17:03 | 34.24025 | -15.18843 | 27535 ft | 482 kts | 23° |
| 2026-05-04 17:03 | 34.29944 | -15.15008 | 27830 ft | 484 kts | 25° |
| 2026-05-04 17:04 | 34.35866 | -15.11057 | 28128 ft | 488 kts | 24° |
| 2026-05-04 17:04 | 34.41837 | -15.07110 | 28486 ft | 486 kts | 24° |
| 2026-05-04 17:05 | 34.47776 | -15.03241 | 28761 ft | 488 kts | 24° |
| 2026-05-04 17:05 | 34.53779 | -14.99347 | 29150 ft | 488 kts | 24° |
| 2026-05-04 17:06 | 34.59762 | -14.95442 | 29553 ft | 487 kts | 24° |
| 2026-05-04 17:06 | 34.62750 | -14.93480 | 29760 ft | 487 kts | 24° |
| 2026-05-04 17:07 | 34.68704 | -14.89571 | 30054 ft | 486 kts | 24° |
| 2026-05-04 17:07 | 34.70680 | -14.88273 | 30149 ft | 486 kts | 24° |
| 2026-05-04 17:07 | 34.74627 | -14.85673 | 30389 ft | 486 kts | 24° |
| 2026-05-04 17:07 | 34.77592 | -14.83714 | 30556 ft | 485 kts | 24° |
| 2026-05-04 17:08 | 34.80568 | -14.81753 | 30740 ft | 485 kts | 24° |
| 2026-05-04 17:08 | 34.86491 | -14.77856 | 31078 ft | 483 kts | 24° |
| 2026-05-04 17:08 | 34.89449 | -14.75905 | 31226 ft | 483 kts | 24° |
| 2026-05-04 17:09 | 34.92397 | -14.73955 | 31351 ft | 483 kts | 24° |
| 2026-05-04 17:09 | 34.95350 | -14.71999 | 31489 ft | 483 kts | 24° |
| 2026-05-04 17:09 | 34.98314 | -14.70041 | 31663 ft | 483 kts | 24° |
| 2026-05-04 17:10 | 35.04209 | -14.66138 | 32030 ft | 480 kts | 24° |
| 2026-05-04 17:10 | 35.12992 | -14.60309 | 32483 ft | 481 kts | 23° |
| 2026-05-04 17:11 | 35.15922 | -14.58350 | 32600 ft | 481 kts | 24° |
| 2026-05-04 17:11 | 35.18854 | -14.56387 | 32740 ft | 480 kts | 23° |
| 2026-05-04 17:11 | 35.24714 | -14.52486 | 33054 ft | 481 kts | 24° |
| 2026-05-04 17:12 | 35.27650 | -14.50539 | 33222 ft | 479 kts | 23° |
| 2026-05-04 17:12 | 35.33486 | -14.46653 | 33493 ft | 477 kts | 23° |
| 2026-05-04 17:13 | 35.42205 | -14.40817 | 33861 ft | 476 kts | 23° |
| 2026-05-04 17:14 | 35.50869 | -14.34977 | 34113 ft | 475 kts | 23° |
| 2026-05-04 17:14 | 35.53776 | -14.33019 | 34107 ft | 475 kts | 22° |
| 2026-05-04 17:15 | 35.62495 | -14.27160 | 34108 ft | 476 kts | 22° |
| 2026-05-04 17:16 | 35.74060 | -14.19360 | 34108 ft | 475 kts | 22° |
| 2026-05-04 17:17 | 35.85659 | -14.11493 | 34101 ft | 477 kts | 22° |
| 2026-05-04 17:18 | 35.97257 | -14.03599 | 34108 ft | 475 kts | 22° |
| 2026-05-04 17:19 | 36.08786 | -13.95737 | 34102 ft | 474 kts | 22° |
| 2026-05-04 17:20 | 36.20322 | -13.87839 | 34110 ft | 474 kts | 22° |
| 2026-05-04 17:20 | 36.28996 | -13.81885 | 34108 ft | 475 kts | 22° |
| 2026-05-04 17:21 | 36.40546 | -13.73934 | 34108 ft | 475 kts | 22° |
| 2026-05-04 17:22 | 36.46276 | -13.69972 | 34108 ft | 473 kts | 23° |
| 2026-05-04 17:23 | 36.56848 | -13.62653 | 34112 ft | 473 kts | 22° |
| 2026-05-04 17:24 | 36.65493 | -13.56654 | 34105 ft | 474 kts | 22° |
| 2026-05-04 17:25 | 36.77008 | -13.48640 | 34109 ft | 473 kts | 22° |
| 2026-05-04 17:26 | 36.88442 | -13.40651 | 34110 ft | 472 kts | 22° |
| 2026-05-04 17:27 | 37.02795 | -13.30592 | 34112 ft | 472 kts | 23° |
| 2026-05-04 17:28 | 37.14265 | -13.22509 | 34109 ft | 472 kts | 22° |
| 2026-05-04 17:29 | 37.31442 | -13.10357 | 34090 ft | 472 kts | 22° |
| 2026-05-04 17:31 | 37.45684 | -13.00256 | 34101 ft | 473 kts | 23° |
| 2026-05-04 17:32 | 37.59950 | -12.90050 | 34103 ft | 471 kts | 23° |
| 2026-05-04 17:33 | 37.71337 | -12.81893 | 34105 ft | 469 kts | 22° |
| 2026-05-04 17:34 | 37.82693 | -12.73750 | 34099 ft | 471 kts | 22° |
| 2026-05-04 17:35 | 37.96911 | -12.63457 | 34111 ft | 470 kts | 23° |
| 2026-05-04 17:36 | 38.02602 | -12.59355 | 34097 ft | 469 kts | 22° |
| 2026-05-04 17:36 | 38.08264 | -12.55254 | 34102 ft | 468 kts | 22° |
| 2026-05-04 17:37 | 38.13879 | -12.51149 | 34103 ft | 468 kts | 22° |
| 2026-05-04 17:37 | 38.19537 | -12.47022 | 34092 ft | 467 kts | 23° |
| 2026-05-04 17:38 | 38.25190 | -12.42892 | 34096 ft | 468 kts | 22° |
| 2026-05-04 17:38 | 38.30847 | -12.38772 | 34102 ft | 468 kts | 22° |
| 2026-05-04 17:39 | 38.39294 | -12.32576 | 34100 ft | 466 kts | 22° |
| 2026-05-04 17:39 | 38.44911 | -12.28462 | 34101 ft | 469 kts | 22° |
| 2026-05-04 17:40 | 38.50567 | -12.24313 | 34102 ft | 468 kts | 22° |
| 2026-05-04 17:40 | 38.56213 | -12.20149 | 34092 ft | 469 kts | 22° |
| 2026-05-04 17:41 | 38.61871 | -12.15975 | 34099 ft | 469 kts | 22° |
| 2026-05-04 17:41 | 38.67481 | -12.11820 | 34099 ft | 469 kts | 22° |
| 2026-05-04 17:42 | 38.73127 | -12.07631 | 34098 ft | 468 kts | 22° |
| 2026-05-04 17:42 | 38.78774 | -12.03446 | 34112 ft | 469 kts | 22° |
| 2026-05-04 17:43 | 38.84425 | -11.99242 | 34119 ft | 468 kts | 22° |
| 2026-05-04 17:43 | 38.90074 | -11.95037 | 34098 ft | 470 kts | 22° |
| 2026-05-04 17:44 | 38.95726 | -11.90815 | 34118 ft | 470 kts | 22° |
| 2026-05-04 17:44 | 39.01383 | -11.86574 | 34110 ft | 471 kts | 23° |
| 2026-05-04 17:45 | 39.07016 | -11.82347 | 34122 ft | 472 kts | 22° |
| 2026-05-04 17:45 | 39.12686 | -11.78099 | 34122 ft | 471 kts | 22° |
| 2026-05-04 17:46 | 39.18361 | -11.73847 | 34112 ft | 471 kts | 23° |
| 2026-05-04 17:46 | 39.24018 | -11.69571 | 34118 ft | 472 kts | 23° |
| 2026-05-04 17:47 | 39.29693 | -11.65297 | 34130 ft | 471 kts | 23° |
| 2026-05-04 17:47 | 39.35356 | -11.61018 | 34111 ft | 472 kts | 23° |
| 2026-05-04 17:48 | 39.40962 | -11.56641 | 34116 ft | 474 kts | 25° |
| 2026-05-04 17:48 | 39.46489 | -11.51962 | 34114 ft | 474 kts | 26° |
| 2026-05-04 17:49 | 39.51993 | -11.47218 | 34109 ft | 476 kts | 25° |
| 2026-05-04 17:49 | 39.57542 | -11.42522 | 34109 ft | 475 kts | 25° |
| 2026-05-04 17:50 | 39.63049 | -11.37899 | 34115 ft | 474 kts | 25° |
| 2026-05-04 17:50 | 39.68601 | -11.33243 | 34111 ft | 475 kts | 25° |
| 2026-05-04 17:51 | 39.74147 | -11.28562 | 34106 ft | 476 kts | 26° |
| 2026-05-04 17:51 | 39.79690 | -11.23842 | 34111 ft | 476 kts | 26° |
| 2026-05-04 17:52 | 39.85235 | -11.19134 | 34111 ft | 476 kts | 26° |
| 2026-05-04 17:52 | 39.90786 | -11.14445 | 34112 ft | 476 kts | 25° |
| 2026-05-04 17:53 | 39.96301 | -11.09759 | 34114 ft | 476 kts | 26° |
| 2026-05-04 17:53 | 40.01845 | -11.05011 | 34108 ft | 477 kts | 26° |
| 2026-05-04 17:54 | 40.07387 | -11.00250 | 34109 ft | 477 kts | 26° |
| 2026-05-04 17:54 | 40.12942 | -10.95486 | 34110 ft | 479 kts | 26° |
| 2026-05-04 17:55 | 40.18510 | -10.90727 | 34103 ft | 478 kts | 26° |
| 2026-05-04 17:55 | 40.24070 | -10.85934 | 34122 ft | 477 kts | 27° |
| 2026-05-04 17:56 | 40.29626 | -10.81144 | 34111 ft | 479 kts | 26° |
| 2026-05-04 17:56 | 40.35190 | -10.76340 | 34112 ft | 479 kts | 26° |
| 2026-05-04 17:57 | 40.40757 | -10.71515 | 34107 ft | 479 kts | 26° |
| 2026-05-04 17:57 | 40.46264 | -10.66732 | 34107 ft | 478 kts | 27° |
| 2026-05-04 17:58 | 40.51844 | -10.61892 | 34112 ft | 481 kts | 27° |
| 2026-05-04 17:58 | 40.57421 | -10.57048 | 34107 ft | 480 kts | 27° |
| 2026-05-04 17:59 | 40.62996 | -10.52187 | 34111 ft | 481 kts | 26° |
| 2026-05-04 18:00 | 40.71307 | -10.44907 | 34110 ft | 480 kts | 27° |
| 2026-05-04 18:00 | 40.76876 | -10.40007 | 34106 ft | 481 kts | 27° |
| 2026-05-04 18:01 | 40.82438 | -10.35106 | 34111 ft | 479 kts | 27° |
| 2026-05-04 18:01 | 40.87983 | -10.30231 | 34110 ft | 479 kts | 27° |
| 2026-05-04 18:02 | 40.96295 | -10.22903 | 34096 ft | 480 kts | 27° |
| 2026-05-04 18:02 | 41.01857 | -10.17981 | 34103 ft | 482 kts | 28° |
| 2026-05-04 18:03 | 41.07435 | -10.13042 | 34098 ft | 481 kts | 28° |
| 2026-05-04 18:03 | 41.12976 | -10.08096 | 34078 ft | 480 kts | 28° |
| 2026-05-04 18:04 | 41.18525 | -10.03151 | 34099 ft | 480 kts | 28° |
| 2026-05-04 18:05 | 41.26880 | -9.95699 | 34084 ft | 483 kts | 28° |
| 2026-05-04 18:05 | 41.32414 | -9.90754 | 34080 ft | 482 kts | 28° |
| 2026-05-04 18:06 | 41.40769 | -9.83257 | 34084 ft | 483 kts | 29° |
| 2026-05-04 18:06 | 41.46335 | -9.78235 | 34084 ft | 483 kts | 29° |
| 2026-05-04 18:07 | 41.51903 | -9.73238 | 34085 ft | 482 kts | 29° |
| 2026-05-04 18:07 | 41.57460 | -9.68209 | 34078 ft | 484 kts | 30° |
| 2026-05-04 18:08 | 41.63034 | -9.63129 | 34083 ft | 487 kts | 30° |
| 2026-05-04 18:08 | 41.68517 | -9.58148 | 34081 ft | 490 kts | 29° |
| 2026-05-04 18:09 | 41.79886 | -9.47851 | 34086 ft | 494 kts | 30° |
| 2026-05-04 18:10 | 41.85589 | -9.42631 | 34082 ft | 498 kts | 30° |
| 2026-05-04 18:10 | 41.91316 | -9.37350 | 34082 ft | 499 kts | 31° |
| 2026-05-04 18:11 | 41.96651 | -9.31282 | 34082 ft | 504 kts | 38° |
| 2026-05-04 18:11 | 42.01826 | -9.25005 | 34079 ft | 503 kts | 38° |
| 2026-05-04 18:12 | 42.06998 | -9.18707 | 34085 ft | 500 kts | 39° |
| 2026-05-04 18:12 | 42.12167 | -9.12409 | 34081 ft | 500 kts | 39° |
| 2026-05-04 18:13 | 42.17320 | -9.06113 | 34080 ft | 499 kts | 40° |
| 2026-05-04 18:14 | 42.25008 | -8.96675 | 34074 ft | 501 kts | 39° |
| 2026-05-04 18:14 | 42.29347 | -8.91358 | 34071 ft | 502 kts | 39° |
| 2026-05-04 18:15 | 42.39627 | -8.78681 | 34076 ft | 502 kts | 39° |
| 2026-05-04 18:16 | 42.44778 | -8.72292 | 34072 ft | 500 kts | 39° |
| 2026-05-04 18:16 | 42.49922 | -8.65902 | 34086 ft | 502 kts | 39° |
| 2026-05-04 18:17 | 42.57660 | -8.56290 | 34082 ft | 502 kts | 39° |
| 2026-05-04 18:18 | 42.65392 | -8.46691 | 34082 ft | 501 kts | 40° |
| 2026-05-04 18:18 | 42.70517 | -8.40263 | 34080 ft | 502 kts | 40° |
| 2026-05-04 18:19 | 42.78192 | -8.30606 | 34084 ft | 501 kts | 40° |
| 2026-05-04 18:19 | 42.83286 | -8.24197 | 34078 ft | 503 kts | 40° |
| 2026-05-04 18:20 | 42.88411 | -8.17720 | 34070 ft | 499 kts | 40° |
| 2026-05-04 18:20 | 42.93513 | -8.11285 | 34086 ft | 499 kts | 40° |
| 2026-05-04 18:21 | 42.98600 | -8.04831 | 34073 ft | 498 kts | 40° |
| 2026-05-04 18:21 | 43.03665 | -7.98361 | 34070 ft | 498 kts | 41° |
| 2026-05-04 18:22 | 43.08742 | -7.91887 | 34067 ft | 500 kts | 41° |
| 2026-05-04 18:22 | 43.13835 | -7.85401 | 34057 ft | 499 kts | 41° |
| 2026-05-04 18:23 | 43.18913 | -7.78911 | 34065 ft | 500 kts | 41° |
| 2026-05-04 18:23 | 43.23999 | -7.72386 | 34064 ft | 499 kts | 41° |
| 2026-05-04 18:24 | 43.29055 | -7.65875 | 34063 ft | 498 kts | 42° |
| 2026-05-04 18:24 | 43.34091 | -7.59368 | 34060 ft | 497 kts | 43° |
| 2026-05-04 18:25 | 43.39125 | -7.52854 | 34035 ft | 497 kts | 42° |
| 2026-05-04 18:25 | 43.44169 | -7.46344 | 34044 ft | 497 kts | 42° |
| 2026-05-04 18:26 | 43.49168 | -7.39871 | 34048 ft | 496 kts | 42° |
| 2026-05-04 18:26 | 43.54186 | -7.33334 | 34033 ft | 496 kts | 42° |
| 2026-05-04 18:27 | 43.59200 | -7.26780 | 34046 ft | 497 kts | 42° |
| 2026-05-04 18:27 | 43.64231 | -7.20201 | 34049 ft | 499 kts | 42° |
| 2026-05-04 18:28 | 43.69248 | -7.13620 | 34038 ft | 495 kts | 43° |
| 2026-05-04 18:28 | 43.74244 | -7.07045 | 34053 ft | 497 kts | 43° |
| 2026-05-04 18:29 | 43.79200 | -7.00536 | 34057 ft | 497 kts | 43° |
| 2026-05-04 18:29 | 43.83314 | -6.95110 | 34054 ft | 498 kts | 43° |
| 2026-05-04 18:30 | 43.90496 | -6.85602 | 34060 ft | 498 kts | 42° |
| 2026-05-04 18:31 | 43.95506 | -6.78939 | 34055 ft | 499 kts | 43° |
| 2026-05-04 18:31 | 44.00515 | -6.72256 | 34053 ft | 499 kts | 43° |
| 2026-05-04 18:32 | 44.04778 | -6.66562 | 34049 ft | 495 kts | 43° |
| 2026-05-04 18:32 | 44.09467 | -6.60309 | 34059 ft | 494 kts | 44° |
| 2026-05-04 18:33 | 44.14415 | -6.53662 | 34054 ft | 495 kts | 44° |
| 2026-05-04 18:33 | 44.19380 | -6.46989 | 34056 ft | 495 kts | 44° |
| 2026-05-04 18:34 | 44.24328 | -6.40331 | 34055 ft | 495 kts | 44° |
| 2026-05-04 18:34 | 44.29266 | -6.33657 | 34060 ft | 494 kts | 44° |
| 2026-05-04 18:35 | 44.33800 | -6.27514 | 34057 ft | 496 kts | 44° |
| 2026-05-04 18:35 | 44.38751 | -6.20799 | 34048 ft | 497 kts | 45° |
| 2026-05-04 18:36 | 44.43703 | -6.14064 | 34054 ft | 496 kts | 44° |
| 2026-05-04 18:36 | 44.48650 | -6.07313 | 34051 ft | 496 kts | 45° |
| 2026-05-04 18:37 | 44.53583 | -6.00575 | 34059 ft | 492 kts | 45° |
| 2026-05-04 18:37 | 44.58489 | -5.93837 | 34036 ft | 495 kts | 44° |
| 2026-05-04 18:38 | 44.63428 | -5.87074 | 34046 ft | 496 kts | 45° |
| 2026-05-04 18:38 | 44.68309 | -5.80352 | 34025 ft | 494 kts | 44° |
| 2026-05-04 18:39 | 44.73235 | -5.73608 | 34051 ft | 494 kts | 45° |
| 2026-05-04 18:39 | 44.78182 | -5.66872 | 34055 ft | 494 kts | 44° |
| 2026-05-04 18:40 | 44.83095 | -5.60138 | 34046 ft | 493 kts | 45° |
| 2026-05-04 18:40 | 44.88008 | -5.53349 | 34050 ft | 494 kts | 45° |
| 2026-05-04 18:41 | 44.92869 | -5.46622 | 34029 ft | 492 kts | 45° |
| 2026-05-04 18:41 | 44.97710 | -5.39924 | 34028 ft | 491 kts | 45° |
| 2026-05-04 18:42 | 45.02493 | -5.33276 | 34032 ft | 492 kts | 45° |
| 2026-05-04 18:42 | 45.07353 | -5.26484 | 34037 ft | 491 kts | 45° |
| 2026-05-04 18:43 | 45.12211 | -5.19701 | 34059 ft | 490 kts | 45° |
| 2026-05-04 18:43 | 45.17076 | -5.12911 | 34036 ft | 490 kts | 45° |
| 2026-05-04 18:44 | 45.21931 | -5.06108 | 34033 ft | 491 kts | 46° |
| 2026-05-04 18:44 | 45.26750 | -4.99323 | 34033 ft | 490 kts | 46° |
| 2026-05-04 18:45 | 45.31593 | -4.92479 | 34034 ft | 490 kts | 46° |
| 2026-05-04 18:45 | 45.36435 | -4.85643 | 34047 ft | 491 kts | 46° |
| 2026-05-04 18:46 | 45.41281 | -4.78798 | 34036 ft | 491 kts | 46° |
| 2026-05-04 18:46 | 45.46115 | -4.71927 | 34029 ft | 490 kts | 46° |
| 2026-05-04 18:47 | 45.50919 | -4.65062 | 34035 ft | 488 kts | 46° |
| 2026-05-04 18:47 | 45.55720 | -4.58179 | 34033 ft | 489 kts | 46° |
| 2026-05-04 18:48 | 45.60526 | -4.51316 | 34020 ft | 488 kts | 46° |
| 2026-05-04 18:48 | 45.65304 | -4.44484 | 34027 ft | 485 kts | 46° |
| 2026-05-04 18:49 | 45.70048 | -4.37641 | 34020 ft | 489 kts | 47° |
| 2026-05-04 18:49 | 45.74823 | -4.30725 | 34012 ft | 488 kts | 46° |
| 2026-05-04 18:50 | 45.79601 | -4.23809 | 34018 ft | 488 kts | 46° |
| 2026-05-04 18:50 | 45.84379 | -4.16902 | 34019 ft | 488 kts | 46° |
| 2026-05-04 18:51 | 45.89153 | -4.09991 | 34006 ft | 487 kts | 46° |
| 2026-05-04 18:51 | 45.93618 | -4.03476 | 34012 ft | 487 kts | 47° |
| 2026-05-04 18:52 | 45.98364 | -3.96526 | 34021 ft | 487 kts | 47° |
| 2026-05-04 18:52 | 46.03109 | -3.89565 | 34015 ft | 487 kts | 47° |
| 2026-05-04 18:53 | 46.07856 | -3.82587 | 34020 ft | 488 kts | 47° |
| 2026-05-04 18:53 | 46.12595 | -3.75599 | 34010 ft | 488 kts | 47° |
| 2026-05-04 18:54 | 46.17345 | -3.68605 | 34007 ft | 487 kts | 47° |
| 2026-05-04 18:54 | 46.22049 | -3.61632 | 33990 ft | 487 kts | 47° |
| 2026-05-04 18:55 | 46.26774 | -3.54616 | 33991 ft | 487 kts | 47° |
| 2026-05-04 18:55 | 46.33849 | -3.44064 | 33995 ft | 485 kts | 47° |
| 2026-05-04 18:56 | 46.38564 | -3.37020 | 33991 ft | 487 kts | 47° |
| 2026-05-04 18:56 | 46.43268 | -3.29973 | 33991 ft | 487 kts | 48° |
| 2026-05-04 18:57 | 46.47979 | -3.22897 | 33978 ft | 487 kts | 48° |
| 2026-05-04 18:57 | 46.52680 | -3.15825 | 33989 ft | 487 kts | 48° |
| 2026-05-04 18:58 | 46.57187 | -3.08505 | 33987 ft | 483 kts | 58° |
| 2026-05-04 18:58 | 46.60614 | -3.00189 | 33987 ft | 482 kts | 62° |
| 2026-05-04 18:59 | 46.64001 | -2.91748 | 33980 ft | 483 kts | 62° |
| 2026-05-04 18:59 | 46.67400 | -2.83299 | 33987 ft | 483 kts | 62° |
| 2026-05-04 19:00 | 46.70780 | -2.74856 | 33979 ft | 483 kts | 63° |
| 2026-05-04 19:00 | 46.74131 | -2.66435 | 33979 ft | 483 kts | 63° |
| 2026-05-04 19:01 | 46.77487 | -2.57951 | 33977 ft | 482 kts | 63° |
| 2026-05-04 19:01 | 46.80832 | -2.49475 | 33981 ft | 482 kts | 63° |
| 2026-05-04 19:02 | 46.84176 | -2.40969 | 33980 ft | 483 kts | 63° |
| 2026-05-04 19:02 | 46.87542 | -2.32502 | 33967 ft | 482 kts | 62° |
| 2026-05-04 19:03 | 46.91046 | -2.24188 | 33973 ft | 483 kts | 60° |
| 2026-05-04 19:03 | 46.94632 | -2.15858 | 33969 ft | 483 kts | 61° |
| 2026-05-04 19:04 | 46.98181 | -2.07482 | 33964 ft | 482 kts | 62° |
| 2026-05-04 19:04 | 47.01659 | -1.99088 | 33959 ft | 481 kts | 63° |
| 2026-05-04 19:05 | 47.04973 | -1.90586 | 33967 ft | 480 kts | 64° |
| 2026-05-04 19:05 | 47.08201 | -1.82002 | 33964 ft | 480 kts | 64° |
| 2026-05-04 19:06 | 47.14319 | -1.65920 | 33959 ft | 481 kts | 64° |
| 2026-05-04 19:07 | 47.17637 | -1.57468 | 33935 ft | 481 kts | 61° |
| 2026-05-04 19:07 | 47.21323 | -1.49253 | 33952 ft | 482 kts | 59° |
| 2026-05-04 19:08 | 47.25125 | -1.41136 | 33953 ft | 482 kts | 59° |
| 2026-05-04 19:08 | 47.28847 | -1.32970 | 33949 ft | 479 kts | 60° |
| 2026-05-04 19:09 | 47.32495 | -1.24735 | 33953 ft | 479 kts | 60° |
| 2026-05-04 19:09 | 47.36106 | -1.16527 | 33955 ft | 480 kts | 60° |
| 2026-05-04 19:10 | 47.39773 | -1.08241 | 33968 ft | 480 kts | 60° |
| 2026-05-04 19:10 | 47.43396 | -1.00025 | 33962 ft | 480 kts | 60° |
| 2026-05-04 19:11 | 47.47038 | -0.91750 | 33962 ft | 480 kts | 60° |
| 2026-05-04 19:11 | 47.50675 | -0.83465 | 33961 ft | 480 kts | 59° |
| 2026-05-04 19:12 | 47.56132 | -0.70993 | 33960 ft | 483 kts | 60° |
| 2026-05-04 19:13 | 47.59737 | -0.62718 | 33949 ft | 479 kts | 60° |
| 2026-05-04 19:13 | 47.63348 | -0.54401 | 33951 ft | 480 kts | 60° |
| 2026-05-04 19:14 | 47.66945 | -0.46040 | 33953 ft | 481 kts | 61° |
| 2026-05-04 19:14 | 47.70408 | -0.37563 | 33951 ft | 479 kts | 63° |
| 2026-05-04 19:15 | 47.73752 | -0.29017 | 33967 ft | 479 kts | 63° |
| 2026-05-04 19:15 | 47.77096 | -0.20458 | 33955 ft | 479 kts | 63° |
| 2026-05-04 19:16 | 47.80465 | -0.11892 | 33951 ft | 480 kts | 63° |
| 2026-05-04 19:16 | 47.83845 | -0.03330 | 33956 ft | 480 kts | 63° |
| 2026-05-04 19:17 | 47.87208 | 0.05183 | 33952 ft | 480 kts | 63° |
| 2026-05-04 19:17 | 47.90598 | 0.13815 | 33955 ft | 484 kts | 62° |
| 2026-05-04 19:18 | 47.93986 | 0.22524 | 33953 ft | 486 kts | 62° |
| 2026-05-04 19:18 | 47.97371 | 0.31235 | 33933 ft | 487 kts | 62° |
| 2026-05-04 19:19 | 48.00769 | 0.39991 | 33948 ft | 485 kts | 62° |
| 2026-05-04 19:19 | 48.04156 | 0.48726 | 33954 ft | 486 kts | 63° |
| 2026-05-04 19:20 | 48.07529 | 0.57486 | 33957 ft | 487 kts | 63° |
| 2026-05-04 19:20 | 48.10901 | 0.66285 | 33950 ft | 487 kts | 62° |
| 2026-05-04 19:21 | 48.14275 | 0.75089 | 33949 ft | 487 kts | 63° |
| 2026-05-04 19:21 | 48.17616 | 0.83870 | 33952 ft | 488 kts | 63° |
| 2026-05-04 19:22 | 48.20983 | 0.92710 | 33945 ft | 488 kts | 63° |
| 2026-05-04 19:22 | 48.24341 | 1.01561 | 33935 ft | 488 kts | 63° |
| 2026-05-04 19:23 | 48.27694 | 1.10455 | 33947 ft | 490 kts | 63° |
| 2026-05-04 19:23 | 48.31048 | 1.19362 | 33937 ft | 490 kts | 63° |
| 2026-05-04 19:24 | 48.34389 | 1.28286 | 33936 ft | 489 kts | 64° |
| 2026-05-04 19:24 | 48.37723 | 1.37210 | 33933 ft | 489 kts | 64° |
| 2026-05-04 19:25 | 48.41031 | 1.46117 | 33928 ft | 490 kts | 63° |
| 2026-05-04 19:25 | 48.44366 | 1.55092 | 33953 ft | 491 kts | 64° |
| 2026-05-04 19:26 | 48.47699 | 1.64096 | 33949 ft | 491 kts | 64° |
| 2026-05-04 19:26 | 48.51011 | 1.73071 | 33951 ft | 491 kts | 64° |
| 2026-05-04 19:27 | 48.54324 | 1.82081 | 33937 ft | 491 kts | 64° |
| 2026-05-04 19:27 | 48.57618 | 1.91094 | 33957 ft | 491 kts | 64° |
| 2026-05-04 19:28 | 48.60337 | 2.00474 | 33939 ft | 488 kts | 71° |
| 2026-05-04 19:28 | 48.62850 | 2.10035 | 33936 ft | 489 kts | 72° |
| 2026-05-04 19:29 | 48.65348 | 2.19634 | 33964 ft | 489 kts | 72° |
| 2026-05-04 19:29 | 48.67828 | 2.29185 | 33963 ft | 490 kts | 72° |
| 2026-05-04 19:30 | 48.70298 | 2.38739 | 33956 ft | 490 kts | 72° |
| 2026-05-04 19:30 | 48.72772 | 2.48374 | 33937 ft | 490 kts | 72° |
| 2026-05-04 19:31 | 48.75231 | 2.58007 | 33936 ft | 490 kts | 72° |
| 2026-05-04 19:31 | 48.77682 | 2.67657 | 33945 ft | 490 kts | 73° |
| 2026-05-04 19:32 | 48.80130 | 2.77319 | 33936 ft | 491 kts | 73° |
| 2026-05-04 19:32 | 48.82567 | 2.86937 | 33951 ft | 491 kts | 73° |
| 2026-05-04 19:33 | 48.85021 | 2.96630 | 33946 ft | 492 kts | 73° |
| 2026-05-04 19:33 | 48.87454 | 3.06342 | 33953 ft | 492 kts | 73° |
| 2026-05-04 19:34 | 48.89876 | 3.16082 | 33952 ft | 493 kts | 73° |
| 2026-05-04 19:34 | 48.92291 | 3.25839 | 33953 ft | 493 kts | 73° |
| 2026-05-04 19:35 | 48.94708 | 3.35618 | 33950 ft | 494 kts | 73° |
| 2026-05-04 19:35 | 48.97112 | 3.45326 | 33956 ft | 493 kts | 73° |
| 2026-05-04 19:36 | 48.99526 | 3.55131 | 33956 ft | 494 kts | 73° |
| 2026-05-04 19:36 | 49.01916 | 3.64955 | 33949 ft | 494 kts | 74° |
| 2026-05-04 19:37 | 49.04301 | 3.74787 | 33963 ft | 494 kts | 73° |
| 2026-05-04 19:37 | 49.06684 | 3.84621 | 33951 ft | 493 kts | 74° |
| 2026-05-04 19:38 | 49.09050 | 3.94448 | 33957 ft | 492 kts | 75° |
| 2026-05-04 19:38 | 49.11407 | 4.04290 | 33954 ft | 495 kts | 74° |
| 2026-05-04 19:39 | 49.13754 | 4.14107 | 33948 ft | 496 kts | 74° |
| 2026-05-04 19:39 | 49.16144 | 4.24017 | 33947 ft | 495 kts | 74° |
| 2026-05-04 19:40 | 49.18509 | 4.33906 | 33952 ft | 496 kts | 74° |
| 2026-05-04 19:40 | 49.20839 | 4.43834 | 33951 ft | 496 kts | 75° |
| 2026-05-04 19:41 | 49.23154 | 4.53796 | 33943 ft | 497 kts | 75° |
| 2026-05-04 19:41 | 49.25472 | 4.63741 | 33958 ft | 497 kts | 75° |
| 2026-05-04 19:42 | 49.27794 | 4.73721 | 33947 ft | 497 kts | 75° |
| 2026-05-04 19:42 | 49.30106 | 4.83704 | 33951 ft | 497 kts | 75° |
| 2026-05-04 19:43 | 49.32395 | 4.93667 | 33965 ft | 498 kts | 75° |
| 2026-05-04 19:43 | 49.34696 | 5.03706 | 33955 ft | 498 kts | 75° |
| 2026-05-04 19:44 | 49.36998 | 5.13762 | 33960 ft | 499 kts | 75° |
| 2026-05-04 19:44 | 49.39274 | 5.23825 | 33968 ft | 499 kts | 75° |
| 2026-05-04 19:45 | 49.41492 | 5.33840 | 33962 ft | 499 kts | 75° |
| 2026-05-04 19:45 | 49.43743 | 5.43947 | 33970 ft | 500 kts | 75° |
| 2026-05-04 19:46 | 49.46025 | 5.54060 | 33958 ft | 501 kts | 75° |
| 2026-05-04 19:46 | 49.48283 | 5.64199 | 33981 ft | 502 kts | 75° |
| 2026-05-04 19:47 | 49.51155 | 5.74022 | 33979 ft | 509 kts | 59° |
| 2026-05-04 19:47 | 49.55911 | 5.82163 | 33982 ft | 514 kts | 38° |
| 2026-05-04 19:48 | 49.61847 | 5.88386 | 33976 ft | 519 kts | 33° |
| 2026-05-04 19:48 | 49.67845 | 5.94444 | 33969 ft | 518 kts | 33° |
| 2026-05-04 19:49 | 49.73862 | 6.00559 | 33972 ft | 517 kts | 33° |
| 2026-05-04 19:49 | 49.79895 | 6.06666 | 33965 ft | 517 kts | 33° |
| 2026-05-04 19:50 | 49.86380 | 6.11382 | 33970 ft | 515 kts | 14° |
| 2026-05-04 19:50 | 49.93406 | 6.13013 | 33980 ft | 508 kts | 356° |
| 2026-05-04 19:51 | 50.00476 | 6.13045 | 33922 ft | 509 kts | 356° |
| 2026-05-04 19:51 | 50.04006 | 6.13061 | 33541 ft | 503 kts | 356° |
| 2026-05-04 19:51 | 50.07469 | 6.13086 | 33274 ft | 491 kts | 356° |
| 2026-05-04 19:51 | 50.10847 | 6.13122 | 33157 ft | 480 kts | 357° |
| 2026-05-04 19:52 | 50.14154 | 6.13146 | 32847 ft | 472 kts | 356° |
| 2026-05-04 19:52 | 50.17414 | 6.13164 | 32471 ft | 466 kts | 356° |
| 2026-05-04 19:52 | 50.20630 | 6.13178 | 32096 ft | 459 kts | 356° |
| 2026-05-04 19:52 | 50.23766 | 6.13193 | 31730 ft | 453 kts | 357° |
| 2026-05-04 19:53 | 50.25886 | 6.13325 | 31471 ft | 451 kts | 3° |
| 2026-05-04 19:53 | 50.29935 | 6.14587 | 30970 ft | 446 kts | 17° |
| 2026-05-04 19:53 | 50.32790 | 6.16393 | 30605 ft | 439 kts | 27° |
| 2026-05-04 19:53 | 50.35386 | 6.18821 | 30227 ft | 431 kts | 33° |
| 2026-05-04 19:54 | 50.37043 | 6.20532 | 29979 ft | 425 kts | 34° |
| 2026-05-04 19:54 | 50.39501 | 6.23061 | 29600 ft | 422 kts | 33° |
| 2026-05-04 19:54 | 50.41948 | 6.25568 | 29230 ft | 417 kts | 32° |
| 2026-05-04 19:54 | 50.44357 | 6.28037 | 28729 ft | 410 kts | 33° |
| 2026-05-04 19:55 | 50.46745 | 6.30495 | 28246 ft | 420 kts | 34° |
| 2026-05-04 19:55 | 50.50017 | 6.33866 | 27577 ft | 419 kts | 33° |
| 2026-05-04 19:55 | 50.51673 | 6.35494 | 27248 ft | 418 kts | 31° |
| 2026-05-04 19:55 | 50.54134 | 6.37798 | 26738 ft | 416 kts | 30° |
| 2026-05-04 19:56 | 50.56669 | 6.40088 | 26337 ft | 412 kts | 29° |
| 2026-05-04 19:56 | 50.59116 | 6.42275 | 26074 ft | 399 kts | 29° |
| 2026-05-04 19:56 | 50.61493 | 6.44411 | 25837 ft | 389 kts | 30° |
| 2026-05-04 19:56 | 50.63812 | 6.46512 | 25571 ft | 381 kts | 30° |
| 2026-05-04 19:57 | 50.66081 | 6.48587 | 25316 ft | 373 kts | 30° |
| 2026-05-04 19:57 | 50.68301 | 6.50636 | 25068 ft | 366 kts | 30° |
| 2026-05-04 19:57 | 50.70471 | 6.52651 | 24815 ft | 360 kts | 30° |
| 2026-05-04 19:57 | 50.72631 | 6.54661 | 24350 ft | 360 kts | 30° |
| 2026-05-04 19:58 | 50.74791 | 6.56671 | 23854 ft | 360 kts | 30° |
| 2026-05-04 19:58 | 50.76941 | 6.58670 | 23435 ft | 358 kts | 30° |
| 2026-05-04 19:58 | 50.79083 | 6.60665 | 23011 ft | 356 kts | 30° |
| 2026-05-04 19:58 | 50.81256 | 6.62522 | 22587 ft | 354 kts | 22° |
| 2026-05-04 19:59 | 50.83566 | 6.63786 | 22161 ft | 350 kts | 11° |
| 2026-05-04 19:59 | 50.85963 | 6.64431 | 21735 ft | 348 kts | 6° |
| 2026-05-04 19:59 | 50.88357 | 6.64926 | 21307 ft | 347 kts | 6° |
| 2026-05-04 19:59 | 50.90741 | 6.65436 | 20881 ft | 345 kts | 6° |
| 2026-05-04 20:00 | 50.93086 | 6.65952 | 20456 ft | 343 kts | 6° |
| 2026-05-04 20:00 | 50.95420 | 6.66462 | 20032 ft | 339 kts | 6° |
| 2026-05-04 20:00 | 50.97728 | 6.66970 | 19595 ft | 332 kts | 7° |
| 2026-05-04 20:00 | 51.00012 | 6.67469 | 19170 ft | 330 kts | 6° |
| 2026-05-04 20:01 | 51.02274 | 6.67878 | 18740 ft | 325 kts | 0° |
| 2026-05-04 20:01 | 51.04521 | 6.67772 | 18299 ft | 322 kts | 354° |
| 2026-05-04 20:01 | 51.06750 | 6.67563 | 17801 ft | 320 kts | 355° |
| 2026-05-04 20:01 | 51.08974 | 6.67520 | 17290 ft | 319 kts | 3° |
| 2026-05-04 20:02 | 51.11167 | 6.68115 | 16794 ft | 321 kts | 15° |
| 2026-05-04 20:02 | 51.13264 | 6.69355 | 16287 ft | 322 kts | 26° |
| 2026-05-04 20:02 | 51.15270 | 6.70935 | 15783 ft | 321 kts | 26° |
| 2026-05-04 20:02 | 51.17269 | 6.72503 | 15279 ft | 319 kts | 26° |
| 2026-05-04 20:03 | 51.19248 | 6.74065 | 14765 ft | 314 kts | 26° |
| 2026-05-04 20:03 | 51.21199 | 6.75595 | 14170 ft | 311 kts | 25° |
| 2026-05-04 20:03 | 51.23149 | 6.77109 | 13561 ft | 310 kts | 25° |
| 2026-05-04 20:03 | 51.25057 | 6.78590 | 12971 ft | 308 kts | 25° |
| 2026-05-04 20:04 | 51.27000 | 6.80105 | 12362 ft | 306 kts | 26° |
| 2026-05-04 20:04 | 51.28900 | 6.81598 | 11823 ft | 301 kts | 26° |
| 2026-05-04 20:04 | 51.30735 | 6.83043 | 11326 ft | 294 kts | 26° |
| 2026-05-04 20:04 | 51.32544 | 6.84473 | 10802 ft | 288 kts | 26° |
| 2026-05-04 20:05 | 51.34326 | 6.85880 | 10251 ft | 286 kts | 26° |
| 2026-05-04 20:05 | 51.36107 | 6.87284 | 9698 ft | 282 kts | 26° |
| 2026-05-04 20:05 | 51.37843 | 6.88668 | 9155 ft | 280 kts | 27° |
| 2026-05-04 20:05 | 51.39541 | 6.90019 | 8625 ft | 268 kts | 26° |
| 2026-05-04 20:06 | 51.41198 | 6.91323 | 8078 ft | 263 kts | 26° |
| 2026-05-04 20:06 | 51.42858 | 6.92634 | 7513 ft | 268 kts | 26° |
| 2026-05-04 20:06 | 51.44528 | 6.93951 | 6956 ft | 265 kts | 25° |
| 2026-05-04 20:06 | 51.46147 | 6.95225 | 6399 ft | 257 kts | 25° |
| 2026-05-04 20:07 | 51.47740 | 6.96502 | 5841 ft | 251 kts | 28° |
| 2026-05-04 20:07 | 51.49143 | 6.98131 | 5290 ft | 249 kts | 43° |
| 2026-05-04 20:07 | 51.50257 | 7.00213 | 5035 ft | 246 kts | 53° |
| 2026-05-04 20:07 | 51.51282 | 7.02415 | 4790 ft | 249 kts | 52° |
| 2026-05-04 20:08 | 51.52328 | 7.04625 | 4438 ft | 247 kts | 52° |
| 2026-05-04 20:08 | 51.53360 | 7.06807 | 4094 ft | 244 kts | 53° |
| 2026-05-04 20:08 | 51.54382 | 7.08976 | 3994 ft | 243 kts | 52° |
| 2026-05-04 20:08 | 51.55186 | 7.11343 | 3993 ft | 243 kts | 77° |
| 2026-05-04 20:09 | 51.55149 | 7.14027 | 4005 ft | 243 kts | 110° |
| 2026-05-04 20:09 | 51.54285 | 7.16281 | 4017 ft | 238 kts | 136° |
| 2026-05-04 20:09 | 51.52953 | 7.17813 | 4019 ft | 235 kts | 158° |
| 2026-05-04 20:09 | 51.51409 | 7.18453 | 4005 ft | 229 kts | 179° |
| 2026-05-04 20:10 | 51.49893 | 7.18200 | 3977 ft | 213 kts | 199° |
| 2026-05-04 20:10 | 51.48599 | 7.17170 | 3980 ft | 205 kts | 218° |
| 2026-05-04 20:10 | 51.47583 | 7.15523 | 4064 ft | 206 kts | 233° |
| 2026-05-04 20:10 | 51.46733 | 7.13708 | 4022 ft | 207 kts | 233° |
| 2026-05-04 20:11 | 51.45876 | 7.11876 | 4007 ft | 206 kts | 233° |
| 2026-05-04 20:11 | 51.45008 | 7.10044 | 4002 ft | 207 kts | 234° |
| 2026-05-04 20:11 | 51.44141 | 7.08200 | 4007 ft | 207 kts | 234° |
| 2026-05-04 20:11 | 51.43282 | 7.06368 | 4018 ft | 206 kts | 233° |
| 2026-05-04 20:12 | 51.42437 | 7.04567 | 4017 ft | 198 kts | 232° |
| 2026-05-04 20:12 | 51.41614 | 7.02826 | 3902 ft | 195 kts | 233° |
| 2026-05-04 20:12 | 51.40803 | 7.01104 | 3692 ft | 194 kts | 233° |
| 2026-05-04 20:12 | 51.39989 | 6.99355 | 3450 ft | 194 kts | 234° |
| 2026-05-04 20:13 | 51.39185 | 6.97646 | 3188 ft | 193 kts | 233° |
| 2026-05-04 20:13 | 51.38367 | 6.95942 | 2933 ft | 189 kts | 233° |
| 2026-05-04 20:13 | 51.37590 | 6.94298 | 2679 ft | 183 kts | 233° |
| 2026-05-04 20:13 | 51.36830 | 6.92701 | 2435 ft | 182 kts | 232° |
| 2026-05-04 20:14 | 51.36074 | 6.91086 | 2185 ft | 182 kts | 233° |
| 2026-05-04 20:14 | 51.35322 | 6.89489 | 1961 ft | 175 kts | 232° |
| 2026-05-04 20:14 | 51.34594 | 6.87950 | 1777 ft | 172 kts | 232° |
| 2026-05-04 20:14 | 51.33872 | 6.86440 | 1556 ft | 170 kts | 232° |
| 2026-05-04 20:15 | 51.33185 | 6.85006 | 1301 ft | 156 kts | 232° |
| 2026-05-04 20:15 | 51.32544 | 6.83651 | 1080 ft | 151 kts | 231° |
| 2026-05-04 20:15 | 51.31915 | 6.82335 | 867 ft | 149 kts | 233° |
| 2026-05-04 20:15 | 51.31301 | 6.81040 | 688 ft | 145 kts | 229° |
| 2026-05-04 20:16 | 51.30695 | 6.79755 | 487 ft | 145 kts | 231° |
| 2026-05-04 20:16 | 51.30080 | 6.78463 | 305 ft | 146 kts | 231° |
| 2026-05-04 20:16 | 51.29468 | 6.77178 | 137 ft | 140 kts | 232° |
| 2026-05-04 20:16 | 51.28962 | 6.76115 | 128 ft | 83 kts | 232° |
| 2026-05-04 20:17 | 51.28762 | 6.75757 | 126 ft | 27 kts | 216° |
| 2026-05-04 20:17 | 51.28624 | 6.75677 | 122 ft | 20 kts | 182° |
| 2026-05-04 20:17 | 51.28509 | 6.75722 | 123 ft | 17 kts | 152° |
| 2026-05-04 20:17 | 51.28429 | 6.75816 | 123 ft | 7 kts | 143° |
| 2026-05-04 20:18 | 51.28409 | 6.75840 | 126 ft | 4 kts | 142° |
| 2026-05-04 20:18 | 51.28347 | 6.75916 | 125 ft | 14 kts | 142° |
| 2026-05-04 20:18 | 51.28268 | 6.76007 | 129 ft | 15 kts | 147° |
| 2026-05-04 20:18 | 51.28224 | 6.76053 | 128 ft | 0 kts | 148° |
| 2026-05-04 20:19 | 51.28210 | 6.76067 | 128 ft | 6 kts | 147° |
| 2026-05-04 20:19 | 51.28157 | 6.76074 | 124 ft | 11 kts | 221° |
| 2026-05-04 20:19 | 51.28083 | 6.76054 | 124 ft | 5 kts | 127° |
| 2026-05-04 20:19 | 51.28081 | 6.76058 | 128 ft | 0 kts | 135° |
| 2026-05-04 20:20 | 51.28078 | 6.76058 | 123 ft | 1 kts | 152° |
| 2026-05-04 20:20 | 51.28001 | 6.76046 | 125 ft | 15 kts | 180° |
| 2026-05-04 20:20 | 51.27943 | 6.76080 | 128 ft | 8 kts | 100° |
| 2026-05-04 20:20 | 51.27942 | 6.76164 | 126 ft | 5 kts | 91° |
| 2026-05-04 20:21 | 51.27942 | 6.76168 | 128 ft | 0 kts | 91° |